createdAt,value
2018-09-14T00:00:53.198Z,0.00
2018-09-14T00:01:52.232Z,0.00
2018-09-14T00:02:51.253Z,0.00
2018-09-14T00:04:13.700Z,0.00
2018-09-14T00:04:51.307Z,0.00
2018-09-14T00:05:53.265Z,0.00
2018-09-14T00:07:50.448Z,0.00
2018-09-14T00:08:50.478Z,0.00
2018-09-14T00:09:51.407Z,0.00
2018-09-14T00:10:50.250Z,0.00
2018-09-14T00:11:50.469Z,0.00
2018-09-14T00:12:50.376Z,0.00
2018-09-14T00:13:50.346Z,0.00
2018-09-14T00:14:50.395Z,0.00
2018-09-14T00:17:28.525Z,0.00
2018-09-14T00:18:13.022Z,0.00
2018-09-14T00:20:25.542Z,0.00
2018-09-14T00:21:18.564Z,0.00
2018-09-14T00:22:11.487Z,0.00
2018-09-14T00:23:11.600Z,0.00
2018-09-14T00:24:12.574Z,0.00
2018-09-14T00:25:11.583Z,0.00
2018-09-14T00:26:13.498Z,0.00
2018-09-14T00:27:11.633Z,0.00
2018-09-14T00:28:11.542Z,0.00
2018-09-14T00:29:11.516Z,0.00
2018-09-14T00:30:11.586Z,0.00
2018-09-14T00:31:14.105Z,0.00
2018-09-14T00:32:11.447Z,0.00
2018-09-14T00:34:36.557Z,0.00
2018-09-14T00:35:32.375Z,0.00
2018-09-14T00:36:34.161Z,0.00
2018-09-14T00:37:32.509Z,0.00
2018-09-14T00:38:47.138Z,0.00
2018-09-14T00:39:32.371Z,0.00
2018-09-14T00:40:32.336Z,0.00
2018-09-14T00:41:32.422Z,0.00
2018-09-14T00:42:32.511Z,0.00
2018-09-14T00:43:37.104Z,0.00
2018-09-14T00:44:33.986Z,0.00
2018-09-14T00:45:34.121Z,0.00
2018-09-14T00:46:32.355Z,0.00
2018-09-14T00:47:32.324Z,0.00
2018-09-14T00:48:32.476Z,0.00
2018-09-14T00:49:35.065Z,0.00
2018-09-14T00:50:33.139Z,0.00
2018-09-14T00:51:32.101Z,0.00
2018-09-14T00:52:35.173Z,0.00
2018-09-14T00:54:32.411Z,0.00
2018-09-14T00:55:33.931Z,0.00
2018-09-14T00:56:32.172Z,0.00
2018-09-14T00:57:32.221Z,0.00
2018-09-14T00:58:32.181Z,0.00
2018-09-14T00:59:34.106Z,0.00
2018-09-14T01:00:33.170Z,0.00
2018-09-14T01:01:32.251Z,0.00
2018-09-14T01:02:37.150Z,0.00
2018-09-14T01:03:47.081Z,0.00
2018-09-14T01:04:32.320Z,0.00
2018-09-14T01:05:39.153Z,0.00
2018-09-14T01:06:33.202Z,0.00
2018-09-14T01:07:32.153Z,0.00
2018-09-14T01:08:32.155Z,0.00
2018-09-14T01:09:47.096Z,0.00
2018-09-14T01:10:34.109Z,0.00
2018-09-14T01:11:32.171Z,0.00
2018-09-14T01:12:32.085Z,0.00
2018-09-14T01:13:32.610Z,0.00
2018-09-14T01:14:34.602Z,0.00
2018-09-14T01:15:32.049Z,0.00
2018-09-14T01:16:33.597Z,0.00
2018-09-14T01:17:32.101Z,0.00
2018-09-14T01:18:33.202Z,0.00
2018-09-14T01:19:36.538Z,0.00
2018-09-14T01:20:31.986Z,0.00
2018-09-14T01:21:32.054Z,0.00
2018-09-14T01:22:33.481Z,0.00
2018-09-14T01:23:31.974Z,0.00
2018-09-14T01:24:38.583Z,0.00
2018-09-14T01:25:31.877Z,0.00
2018-09-14T01:26:31.843Z,0.00
2018-09-14T01:27:31.954Z,0.00
2018-09-14T01:28:34.717Z,0.00
2018-09-14T01:29:34.646Z,0.00
2018-09-14T01:30:31.921Z,0.00
2018-09-14T01:31:32.664Z,0.00
2018-09-14T01:32:31.877Z,0.00
2018-09-14T01:33:31.789Z,0.00
2018-09-14T01:34:34.210Z,0.00
2018-09-14T01:35:34.527Z,0.00
2018-09-14T01:37:32.589Z,0.00
2018-09-14T01:39:31.887Z,0.00
2018-09-14T01:40:31.683Z,0.00
2018-09-14T01:41:31.730Z,0.00
2018-09-14T01:42:36.427Z,0.00
2018-09-14T01:43:33.493Z,0.00
2018-09-14T01:44:32.627Z,0.00
2018-09-14T01:45:31.818Z,0.00
2018-09-14T01:47:32.601Z,0.00
2018-09-14T01:48:31.483Z,0.00
2018-09-14T01:49:34.662Z,0.00
2018-09-14T01:50:31.532Z,0.00
2018-09-14T01:51:31.605Z,0.00
2018-09-14T01:52:33.196Z,0.00
2018-09-14T01:54:31.748Z,0.00
2018-09-14T01:55:31.555Z,0.00
2018-09-14T01:56:42.184Z,0.00
2018-09-14T01:57:32.144Z,0.00
2018-09-14T01:58:33.018Z,0.00
2018-09-14T01:59:31.340Z,0.00
2018-09-14T02:00:31.485Z,0.00
2018-09-14T02:01:31.546Z,0.00
2018-09-14T02:02:31.375Z,0.00
2018-09-14T02:03:31.605Z,0.00
2018-09-14T02:04:31.368Z,0.00
2018-09-14T02:05:34.240Z,0.00
2018-09-14T02:06:33.112Z,0.00
2018-09-14T02:07:38.168Z,0.00
2018-09-14T02:08:31.521Z,0.00
2018-09-14T02:09:38.182Z,0.00
2018-09-14T02:10:33.033Z,0.00
2018-09-14T02:11:32.081Z,0.00
2018-09-14T02:12:31.422Z,0.00
2018-09-14T02:13:31.425Z,0.00
2018-09-14T02:14:31.797Z,0.00
2018-09-14T02:15:31.241Z,0.00
2018-09-14T02:16:33.132Z,0.00
2018-09-14T02:17:31.940Z,0.00
2018-09-14T02:18:33.090Z,0.00
2018-09-14T02:19:31.243Z,0.00
2018-09-14T02:20:52.346Z,0.00
2018-09-14T02:21:34.056Z,0.00
2018-09-14T02:22:31.369Z,0.00
2018-09-14T02:23:31.252Z,0.00
2018-09-14T02:24:31.264Z,0.00
2018-09-14T02:25:31.209Z,0.00
2018-09-14T02:26:31.174Z,0.00
2018-09-14T02:27:42.197Z,0.00
2018-09-14T02:28:32.028Z,0.00
2018-09-14T02:29:32.164Z,0.00
2018-09-14T02:30:31.126Z,0.00
2018-09-14T02:31:34.117Z,0.00
2018-09-14T02:32:31.017Z,0.00
2018-09-14T02:33:30.981Z,0.00
2018-09-14T02:34:31.053Z,0.00
2018-09-14T02:35:37.680Z,0.00
2018-09-14T02:37:31.714Z,0.00
2018-09-14T02:38:32.515Z,0.00
2018-09-14T02:39:30.975Z,0.00
2018-09-14T02:41:55.794Z,0.00
2018-09-14T02:42:54.748Z,0.00
2018-09-14T02:43:54.760Z,0.00
2018-09-14T02:46:29.885Z,0.00
2018-09-14T02:49:17.500Z,0.00
2018-09-14T02:50:17.530Z,0.00
2018-09-14T02:52:16.417Z,0.00
2018-09-14T02:53:13.973Z,0.00
2018-09-14T02:55:10.070Z,0.00
2018-09-14T02:57:20.284Z,0.00
2018-09-14T02:58:17.775Z,0.00
2018-09-14T03:00:23.143Z,0.00
2018-09-14T03:01:23.787Z,0.00
2018-09-14T03:02:27.769Z,0.00
2018-09-14T03:03:23.076Z,0.00
2018-09-14T03:04:24.608Z,0.00
2018-09-14T03:05:22.991Z,0.00
2018-09-14T03:06:23.099Z,0.00
2018-09-14T03:07:27.600Z,0.00
2018-09-14T03:08:23.412Z,0.00
2018-09-14T03:09:24.641Z,0.00
2018-09-14T03:10:23.055Z,0.00
2018-09-14T03:11:24.340Z,0.00
2018-09-14T03:13:23.722Z,4.00
2018-09-14T03:14:25.738Z,4.00
2018-09-14T03:15:23.028Z,0.00
2018-09-14T03:16:23.048Z,4.00
2018-09-14T03:17:23.433Z,4.00
2018-09-14T03:20:25.791Z,8.00
2018-09-14T03:21:24.773Z,4.00
2018-09-14T03:22:23.690Z,8.00
2018-09-14T03:23:25.764Z,8.00
2018-09-14T03:24:22.879Z,8.00
2018-09-14T03:25:22.842Z,12.00
2018-09-14T03:26:27.761Z,12.00
2018-09-14T03:27:22.956Z,12.00
2018-09-14T03:28:24.685Z,12.00
2018-09-14T03:29:22.830Z,16.00
2018-09-14T03:30:22.811Z,20.00
2018-09-14T03:31:22.722Z,24.00
2018-09-14T03:32:25.447Z,28.00
2018-09-14T03:34:22.695Z,32.00
2018-09-14T03:35:29.209Z,36.00
2018-09-14T03:36:29.232Z,40.00
2018-09-14T03:37:25.185Z,44.00
2018-09-14T03:38:27.207Z,52.00
2018-09-14T03:40:23.311Z,64.00
2018-09-14T03:43:45.271Z,84.00
2018-09-14T03:44:44.163Z,92.00
2018-09-14T03:48:43.228Z,136.00
2018-09-14T03:49:41.325Z,148.00
2018-09-14T03:52:40.984Z,180.00
2018-09-14T03:53:40.589Z,196.00
2018-09-14T03:55:59.355Z,224.00
2018-09-14T03:59:05.253Z,256.00
2018-09-14T03:59:56.664Z,264.00
2018-09-14T04:02:15.360Z,300.00
2018-09-14T04:05:00.960Z,332.00
2018-09-14T04:05:29.462Z,348.00
2018-09-14T04:07:23.188Z,388.00
2018-09-14T04:08:21.713Z,408.00
2018-09-14T04:09:20.866Z,428.00
2018-09-14T04:10:23.387Z,440.00
2018-09-14T04:11:23.415Z,452.00
2018-09-14T04:12:20.964Z,468.00
2018-09-14T04:13:20.802Z,480.00
2018-09-14T04:16:05.837Z,492.00
2018-09-14T04:16:41.762Z,504.00
2018-09-14T04:18:38.345Z,532.00
2018-09-14T04:19:36.519Z,532.00
2018-09-14T04:20:38.246Z,536.00
2018-09-14T04:21:38.724Z,548.00
2018-09-14T04:22:36.704Z,556.00
2018-09-14T04:23:37.050Z,572.00
2018-09-14T04:24:36.525Z,584.00
2018-09-14T04:25:36.661Z,604.00
2018-09-14T04:26:36.523Z,628.00
2018-09-14T04:27:36.565Z,644.00
2018-09-14T04:28:39.260Z,672.00
2018-09-14T04:29:36.578Z,696.00
2018-09-14T04:30:36.615Z,716.00
2018-09-14T04:31:36.593Z,720.00
2018-09-14T04:32:36.505Z,728.00
2018-09-14T04:33:36.436Z,744.00
2018-09-14T04:34:38.279Z,752.00
2018-09-14T04:36:36.538Z,776.00
2018-09-14T04:37:36.410Z,792.00
2018-09-14T04:38:36.523Z,808.00
2018-09-14T04:39:38.631Z,824.00
2018-09-14T04:41:36.451Z,848.00
2018-09-14T04:42:36.443Z,864.00
2018-09-14T04:43:36.412Z,880.00
2018-09-14T04:44:39.358Z,896.00
2018-09-14T04:46:39.134Z,932.00
2018-09-14T04:47:38.789Z,956.00
2018-09-14T04:48:36.380Z,976.00
2018-09-14T04:49:38.183Z,992.00
2018-09-14T04:50:38.292Z,1012.00
2018-09-14T04:51:36.689Z,1028.00
2018-09-14T04:53:37.767Z,1060.00
2018-09-14T04:54:36.225Z,1072.00
2018-09-14T04:55:39.372Z,1092.00
2018-09-14T04:56:38.344Z,1120.00
2018-09-14T04:57:37.830Z,1148.00
2018-09-14T04:58:36.138Z,1188.00
2018-09-14T04:59:36.221Z,1208.00
2018-09-14T05:00:38.801Z,1232.00
2018-09-14T05:02:36.176Z,1288.00
2018-09-14T05:03:36.197Z,1332.00
2018-09-14T05:04:36.152Z,1380.00
2018-09-14T05:05:37.806Z,1420.00
2018-09-14T05:07:35.935Z,1476.00
2018-09-14T05:08:36.052Z,1492.00
2018-09-14T05:09:35.885Z,1516.00
2018-09-14T05:11:36.016Z,1572.00
2018-09-14T05:12:36.490Z,1584.00
2018-09-14T05:13:36.072Z,1596.00
2018-09-14T05:15:37.751Z,1624.00
2018-09-14T05:16:39.340Z,1640.00
2018-09-14T05:17:37.869Z,1648.00
2018-09-14T05:19:39.060Z,1708.00
2018-09-14T05:20:35.966Z,1744.00
2018-09-14T05:21:35.944Z,1772.00
2018-09-14T05:22:35.729Z,1792.00
2018-09-14T05:23:35.765Z,1812.00
2018-09-14T05:24:36.427Z,1836.00
2018-09-14T05:25:35.766Z,1844.00
2018-09-14T05:26:36.693Z,1848.00
2018-09-14T05:27:37.808Z,1848.00
2018-09-14T05:28:35.747Z,1856.00
2018-09-14T05:29:37.842Z,1860.00
2018-09-14T05:30:35.846Z,1872.00
2018-09-14T05:31:35.760Z,1880.00
2018-09-14T05:32:37.768Z,1884.00
2018-09-14T05:34:36.277Z,1896.00
2018-09-14T05:35:36.250Z,1900.00
2018-09-14T05:36:37.629Z,1908.00
2018-09-14T05:37:35.676Z,1936.00
2018-09-14T05:38:36.349Z,1964.00
2018-09-14T05:39:37.770Z,1988.00
2018-09-14T05:40:37.567Z,2012.00
2018-09-14T05:42:37.214Z,2076.00
2018-09-14T05:43:35.646Z,2096.00
2018-09-14T05:44:38.752Z,2112.00
2018-09-14T05:47:36.121Z,2208.00
2018-09-14T05:48:35.650Z,2236.00
2018-09-14T05:50:36.671Z,2320.00
2018-09-14T05:51:37.775Z,2376.00
2018-09-14T05:52:37.710Z,2420.00
2018-09-14T05:53:35.528Z,2444.00
2018-09-14T05:54:37.359Z,2472.00
2018-09-14T05:55:37.847Z,2496.00
2018-09-14T05:56:37.623Z,2544.00
2018-09-14T05:57:35.715Z,2592.00
2018-09-14T05:58:36.600Z,2644.00
2018-09-14T05:59:37.637Z,2692.00
2018-09-14T06:01:35.501Z,2728.00
2018-09-14T06:02:37.319Z,2748.00
2018-09-14T06:03:35.930Z,2784.00
2018-09-14T06:04:36.580Z,2820.00
2018-09-14T06:06:35.497Z,2840.00
2018-09-14T06:07:37.368Z,2816.00
2018-09-14T06:08:35.429Z,2792.00
2018-09-14T06:09:35.407Z,2776.00
2018-09-14T06:10:35.329Z,2776.00
2018-09-14T06:11:38.228Z,2768.00
2018-09-14T06:12:38.299Z,2744.00
2018-09-14T06:13:36.424Z,2728.00
2018-09-14T06:14:39.404Z,2760.00
2018-09-14T06:15:36.296Z,2772.00
2018-09-14T06:16:35.215Z,2700.00
2018-09-14T06:17:35.391Z,2524.00
2018-09-14T06:18:37.431Z,2296.00
2018-09-14T06:19:36.932Z,2168.00
2018-09-14T06:23:38.202Z,1900.00
2018-09-14T06:24:35.190Z,1952.00
2018-09-14T06:25:38.415Z,2064.00
2018-09-14T06:26:38.158Z,2200.00
2018-09-14T06:27:41.706Z,2344.00
2018-09-14T06:28:42.544Z,2468.00
2018-09-14T06:29:38.849Z,2496.00
2018-09-14T06:30:41.004Z,2524.00
2018-09-14T06:31:38.589Z,2700.00
2018-09-14T06:33:36.047Z,3324.00
2018-09-14T06:35:35.159Z,3848.00
2018-09-14T06:37:36.259Z,4024.00
2018-09-14T06:38:35.566Z,4056.00
2018-09-14T06:39:36.854Z,4076.00
2018-09-14T06:40:35.667Z,4080.00
2018-09-14T06:41:35.051Z,4088.00
2018-09-14T06:43:34.991Z,4116.00
2018-09-14T06:44:35.063Z,4148.00
2018-09-14T06:46:35.525Z,4228.00
2018-09-14T06:47:35.544Z,4304.00
2018-09-14T06:48:35.911Z,4396.00
2018-09-14T06:49:36.831Z,4484.00
2018-09-14T06:50:35.586Z,4572.00
2018-09-14T06:51:37.257Z,4644.00
2018-09-14T06:52:34.969Z,4736.00
2018-09-14T06:53:37.256Z,4848.00
2018-09-14T06:54:37.313Z,4972.00
2018-09-14T06:55:37.373Z,5088.00
2018-09-14T06:56:37.869Z,5208.00
2018-09-14T06:57:34.987Z,5328.00
2018-09-14T06:58:36.887Z,5456.00
2018-09-14T06:59:34.867Z,5548.00
2018-09-14T07:00:36.057Z,5652.00
2018-09-14T07:01:37.401Z,5776.00
2018-09-14T07:02:38.467Z,5920.00
2018-09-14T07:03:37.415Z,6072.00
2018-09-14T07:04:37.715Z,6256.00
2018-09-14T07:05:38.079Z,6324.00
2018-09-14T07:06:35.336Z,6380.00
2018-09-14T07:07:34.838Z,6408.00
2018-09-14T07:08:37.731Z,6476.00
2018-09-14T07:09:34.715Z,6588.00
2018-09-14T07:12:34.809Z,7264.00
2018-09-14T07:13:37.331Z,7484.00
2018-09-14T07:14:36.844Z,7500.00
2018-09-14T07:15:35.097Z,7736.00
2018-09-14T07:16:36.295Z,7908.00
2018-09-14T07:17:34.575Z,8108.00
2018-09-14T07:18:36.853Z,8476.00
2018-09-14T07:19:34.640Z,8668.00
2018-09-14T07:20:34.751Z,8800.00
2018-09-14T07:21:36.379Z,8944.00
2018-09-14T07:22:35.245Z,9004.00
2018-09-14T07:23:34.746Z,9260.00
2018-09-14T07:24:35.192Z,9692.00
2018-09-14T07:27:34.601Z,9476.00
2018-09-14T07:28:36.900Z,9600.00
2018-09-14T07:29:34.485Z,9912.00
2018-09-14T07:30:35.079Z,9888.00
2018-09-14T07:31:34.887Z,10184.00
2018-09-14T07:32:34.527Z,10248.00
2018-09-14T07:34:35.115Z,10864.00
2018-09-14T07:35:34.560Z,10856.00
2018-09-14T07:36:37.912Z,11228.00
2018-09-14T07:37:34.794Z,10488.00
2018-09-14T07:38:36.185Z,10996.00
2018-09-14T07:39:34.609Z,10628.00
2018-09-14T07:40:34.482Z,9592.00
2018-09-14T07:42:34.443Z,7076.00
2018-09-14T07:45:34.897Z,6444.00
2018-09-14T07:46:34.650Z,6860.00
2018-09-14T07:47:34.517Z,7524.00
2018-09-14T07:48:34.519Z,6104.00
2018-09-14T07:49:34.388Z,5956.00
2018-09-14T07:50:36.443Z,6448.00
2018-09-14T07:52:34.464Z,8340.00
2018-09-14T07:53:34.443Z,9192.00
2018-09-14T07:54:34.362Z,9716.00
2018-09-14T07:55:35.162Z,9560.00
2018-09-14T07:56:36.769Z,8832.00
2018-09-14T07:57:35.643Z,9048.00
2018-09-14T07:58:34.506Z,9304.00
2018-09-14T07:59:34.428Z,8880.00
2018-09-14T08:00:36.667Z,8652.00
2018-09-14T08:02:37.437Z,7924.00
2018-09-14T08:03:36.892Z,7760.00
2018-09-14T08:04:34.285Z,7936.00
2018-09-14T08:05:34.897Z,8324.00
2018-09-14T08:06:37.337Z,8720.00
2018-09-14T08:07:36.320Z,8756.00
2018-09-14T08:08:34.927Z,8676.00
2018-09-14T08:12:17.270Z,7420.00
2018-09-14T08:13:19.084Z,7472.00
2018-09-14T08:15:23.080Z,7516.00
2018-09-14T08:17:20.797Z,7784.00
2018-09-14T08:18:20.747Z,7948.00
2018-09-14T08:21:03.463Z,8760.00
2018-09-14T08:21:58.944Z,9012.00
2018-09-14T08:22:57.554Z,9272.00
2018-09-14T08:23:57.208Z,9280.00
2018-09-14T08:24:58.860Z,9172.00
2018-09-14T08:25:57.147Z,9212.00
2018-09-14T08:26:58.530Z,9620.00
2018-09-14T08:27:58.992Z,10096.00
2018-09-14T08:28:57.173Z,10140.00
2018-09-14T08:29:57.094Z,11540.00
2018-09-14T08:30:58.960Z,9824.00
2018-09-14T08:31:57.018Z,9964.00
2018-09-14T08:32:57.645Z,11024.00
2018-09-14T08:35:00.282Z,11468.00
2018-09-14T08:35:57.933Z,12284.00
2018-09-14T08:37:57.857Z,12144.00
2018-09-14T08:38:58.933Z,12344.00
2018-09-14T08:40:18.531Z,14016.00
2018-09-14T08:41:58.904Z,14560.00
2018-09-14T08:42:57.592Z,13980.00
2018-09-14T09:05:26.185Z,9768.00
2018-09-14T09:06:19.581Z,9652.00
2018-09-14T09:07:19.610Z,9600.00
2018-09-14T09:08:19.459Z,9300.00
2018-09-14T09:09:19.543Z,8600.00
2018-09-14T09:10:20.025Z,7776.00
2018-09-14T09:11:19.924Z,7560.00
2018-09-14T09:13:21.611Z,6932.00
2018-09-14T09:15:19.385Z,6896.00
2018-09-14T09:16:19.414Z,6972.00
2018-09-14T09:17:21.122Z,7120.00
2018-09-14T09:19:19.471Z,7612.00
2018-09-14T09:20:19.325Z,7976.00
2018-09-14T09:21:19.362Z,8172.00
2018-09-14T09:23:19.385Z,8116.00
2018-09-14T09:25:19.326Z,7220.00
2018-09-14T09:27:19.309Z,5692.00
2018-09-14T09:28:20.311Z,5332.00
2018-09-14T09:29:19.289Z,5808.00
2018-09-14T09:30:19.766Z,6756.00
2018-09-14T09:31:19.045Z,7040.00
2018-09-14T09:32:19.368Z,6936.00
2018-09-14T09:33:19.349Z,6132.00
2018-09-14T09:34:22.055Z,5620.00
2018-09-14T09:35:19.774Z,5272.00
2018-09-14T09:36:19.113Z,5160.00
2018-09-14T09:37:21.531Z,5196.00
2018-09-14T09:38:20.936Z,5108.00
2018-09-14T09:39:19.473Z,4836.00
2018-09-14T09:40:19.214Z,4856.00
2018-09-14T09:41:19.330Z,5076.00
2018-09-14T09:42:20.036Z,5072.00
2018-09-14T09:43:22.509Z,5152.00
2018-09-14T09:45:21.159Z,5376.00
2018-09-14T09:46:21.037Z,5656.00
2018-09-14T09:47:18.963Z,6272.00
2018-09-14T09:48:19.196Z,7088.00
2018-09-14T09:49:21.603Z,7892.00
2018-09-14T09:50:18.990Z,8332.00
2018-09-14T09:51:20.256Z,9068.00
2018-09-14T09:52:19.237Z,9920.00
2018-09-14T09:53:19.203Z,10948.00
2018-09-14T09:54:19.144Z,13292.00
2018-09-14T09:56:19.209Z,18976.00
2018-09-14T09:57:19.124Z,19936.00
2018-09-14T09:59:19.195Z,23232.00
2018-09-14T10:00:20.621Z,17984.00
2018-09-14T10:02:20.700Z,19232.00
2018-09-14T10:03:22.161Z,24032.00
2018-09-14T10:04:21.147Z,20384.00
2018-09-14T10:07:20.174Z,21632.00
2018-09-14T10:09:20.221Z,21440.00
2018-09-14T10:10:19.153Z,30080.00
2018-09-14T10:12:22.299Z,14144.00
2018-09-14T10:14:20.160Z,39264.00
2018-09-14T10:15:22.132Z,43680.00
2018-09-14T10:16:19.141Z,10108.00
2018-09-14T10:17:19.147Z,43776.00
2018-09-14T10:18:19.149Z,43360.00
2018-09-14T10:19:20.168Z,43584.00
2018-09-14T10:20:21.249Z,44544.00
2018-09-14T10:23:20.135Z,36384.00
2018-09-14T10:25:20.660Z,21632.00
2018-09-14T10:26:21.673Z,20608.00
2018-09-14T10:27:22.390Z,18176.00
2018-09-14T10:28:19.136Z,21760.00
2018-09-14T10:30:19.147Z,21376.00
2018-09-14T10:31:19.099Z,22944.00
2018-09-14T10:32:19.206Z,19616.00
2018-09-14T10:33:20.899Z,16672.00
2018-09-14T10:34:20.173Z,13980.00
2018-09-14T10:36:22.363Z,11468.00
2018-09-14T10:41:20.733Z,6124.00
2018-09-14T10:42:19.105Z,5120.00
2018-09-14T10:43:19.620Z,4428.00
2018-09-14T10:45:19.201Z,4004.00
2018-09-14T10:46:21.665Z,4144.00
2018-09-14T10:48:18.999Z,4284.00
2018-09-14T10:49:21.631Z,4008.00
2018-09-14T10:50:19.065Z,3768.00
2018-09-14T10:51:20.595Z,3768.00
2018-09-14T10:52:20.763Z,3664.00
2018-09-14T10:53:19.074Z,3424.00
2018-09-14T10:54:19.581Z,3544.00
2018-09-14T10:55:20.149Z,3752.00
2018-09-14T10:56:21.640Z,4012.00
2018-09-14T10:57:19.059Z,4244.00
2018-09-14T10:58:18.976Z,4652.00
2018-09-14T10:59:19.001Z,4772.00
2018-09-14T11:00:19.012Z,4740.00
2018-09-14T11:01:19.922Z,4556.00
2018-09-14T11:02:19.276Z,4136.00
2018-09-14T11:03:18.789Z,3656.00
2018-09-14T11:04:21.270Z,2976.00
2018-09-14T11:06:21.709Z,2232.00
2018-09-14T11:07:21.220Z,2672.00
2018-09-14T11:08:18.764Z,2880.00
2018-09-14T11:09:20.584Z,3000.00
2018-09-14T11:10:18.927Z,3676.00
2018-09-14T11:12:18.951Z,4376.00
2018-09-14T11:13:19.793Z,4464.00
2018-09-14T11:14:18.733Z,4864.00
2018-09-14T11:15:19.285Z,4588.00
2018-09-14T11:16:18.901Z,4148.00
2018-09-14T11:17:19.585Z,4092.00
2018-09-14T11:18:18.891Z,4904.00
2018-09-14T11:19:18.858Z,6352.00
2018-09-14T11:20:18.838Z,6212.00
2018-09-14T11:21:18.824Z,4812.00
2018-09-14T11:22:21.250Z,3552.00
2018-09-14T11:23:20.727Z,3012.00
2018-09-14T11:24:21.654Z,2600.00
2018-09-14T11:25:18.811Z,2480.00
2018-09-14T11:26:20.731Z,2724.00
2018-09-14T11:27:20.519Z,3188.00
2018-09-14T11:28:19.653Z,4612.00
2018-09-14T11:29:18.680Z,5940.00
2018-09-14T11:30:20.624Z,5440.00
2018-09-14T11:33:17.654Z,6356.00
2018-09-14T11:35:21.922Z,9008.00
2018-09-14T11:36:07.517Z,10816.00
2018-09-14T11:37:07.422Z,17696.00
2018-09-14T11:39:07.523Z,30080.00
2018-09-14T11:40:09.094Z,40832.00
2018-09-14T11:41:08.027Z,44672.00
2018-09-14T11:42:09.205Z,22176.00
2018-09-14T11:44:09.198Z,24320.00
2018-09-14T11:45:07.528Z,20224.00
2018-09-14T11:47:28.430Z,52640.00
2018-09-14T12:01:17.945Z,36640.00
2018-09-14T12:33:22.298Z,45760.00
2018-09-14T12:34:20.802Z,43840.00
2018-09-14T12:35:21.708Z,26240.00
2018-09-14T12:36:24.162Z,42912.00
2018-09-14T12:37:23.735Z,43136.00
2018-09-14T12:38:20.801Z,19520.00
2018-09-14T12:39:20.821Z,10480.00
2018-09-14T12:41:20.806Z,7364.00
2018-09-14T12:42:20.785Z,11640.00
2018-09-14T12:43:20.808Z,39712.00
2018-09-14T12:44:23.713Z,7372.00
2018-09-14T12:45:20.791Z,6284.00
2018-09-14T12:46:20.802Z,7112.00
2018-09-14T12:47:20.809Z,7088.00
2018-09-14T12:48:22.768Z,6812.00
2018-09-14T12:49:23.294Z,7668.00
2018-09-14T12:50:20.779Z,7244.00
2018-09-14T12:51:20.774Z,7216.00
2018-09-14T12:53:22.267Z,38752.00
2018-09-14T12:54:20.758Z,8764.00
2018-09-14T12:55:21.721Z,8472.00
2018-09-14T12:56:20.840Z,6516.00
2018-09-14T12:57:22.855Z,7432.00
2018-09-14T13:00:20.679Z,40640.00
2018-09-14T13:01:21.675Z,11056.00
2018-09-14T13:02:21.283Z,42432.00
2018-09-14T13:03:21.007Z,43008.00
2018-09-14T13:04:20.799Z,43232.00
2018-09-14T13:05:22.828Z,41504.00
2018-09-14T13:06:20.700Z,40416.00
2018-09-14T13:07:22.281Z,41248.00
2018-09-14T13:10:20.723Z,45408.00
2018-09-14T13:11:20.787Z,45280.00
2018-09-14T13:13:22.365Z,46400.00
2018-09-14T13:14:22.839Z,47136.00
2018-09-14T13:15:20.751Z,42752.00
2018-09-14T13:17:20.759Z,22848.00
2018-09-14T13:18:21.317Z,36448.00
2018-09-14T13:19:20.777Z,36288.00
2018-09-14T13:28:10.727Z,30720.00
2018-09-14T13:29:07.637Z,30208.00
2018-09-14T13:34:49.129Z,29696.00
2018-09-14T13:36:54.788Z,30016.00
2018-09-14T13:38:50.267Z,30880.00
2018-09-14T13:39:46.483Z,31424.00
2018-09-14T13:40:48.771Z,30784.00
2018-09-14T13:41:47.482Z,6976.00
2018-09-14T13:42:46.471Z,6188.00
2018-09-14T13:44:46.483Z,32352.00
2018-09-14T13:45:50.740Z,35456.00
2018-09-14T13:46:47.012Z,32448.00
2018-09-14T13:47:48.245Z,30336.00
2018-09-14T13:48:47.008Z,28928.00
2018-09-14T13:49:46.461Z,28544.00
2018-09-14T13:50:46.984Z,6600.00
2018-09-14T13:52:48.341Z,29696.00
2018-09-14T13:53:46.433Z,28000.00
2018-09-14T13:55:49.677Z,7700.00
2018-09-14T13:56:46.451Z,9408.00
2018-09-14T13:57:46.466Z,16448.00
2018-09-14T13:58:46.467Z,30432.00
2018-09-14T14:00:48.269Z,30528.00
2018-09-14T14:01:46.518Z,31232.00
2018-09-14T14:02:48.824Z,14528.00
2018-09-14T14:04:46.478Z,30976.00
2018-09-14T14:06:50.217Z,27264.00
2018-09-14T14:08:48.278Z,32480.00
2018-09-14T14:09:47.021Z,22272.00
2018-09-14T14:11:46.459Z,32704.00
2018-09-14T14:12:49.212Z,32064.00
2018-09-14T14:13:47.516Z,31712.00
2018-09-14T14:14:48.261Z,31328.00
2018-09-14T14:15:47.200Z,31936.00
2018-09-14T14:17:46.508Z,34112.00
2018-09-14T14:19:48.195Z,35904.00
2018-09-14T14:26:10.120Z,41504.00
2018-09-14T14:27:38.526Z,17152.00
2018-09-14T14:30:50.403Z,39456.00
2018-09-14T14:38:24.314Z,5264.00
2018-09-14T14:39:23.542Z,41536.00
2018-09-14T14:43:47.696Z,2612.00
2018-09-14T14:45:59.143Z,2704.00
2018-09-14T14:46:57.175Z,3460.00
2018-09-14T14:49:24.317Z,4220.00
2018-09-14T14:50:23.923Z,3984.00
2018-09-14T14:51:22.983Z,3724.00
2018-09-14T14:52:22.128Z,3812.00
2018-09-14T14:53:22.238Z,3264.00
2018-09-14T14:54:22.929Z,2636.00
2018-09-14T14:55:22.181Z,2312.00
2018-09-14T14:56:24.056Z,2088.00
2018-09-14T14:57:22.176Z,1912.00
2018-09-14T14:58:22.062Z,1772.00
2018-09-14T14:59:23.964Z,1764.00
2018-09-14T15:00:22.923Z,1844.00
2018-09-14T15:01:57.900Z,1884.00
2018-09-14T15:02:43.802Z,1676.00
2018-09-14T15:03:28.887Z,1432.00
2018-09-14T16:03:37.648Z,904.00
2018-09-14T16:04:30.115Z,1160.00
2018-09-14T16:14:36.485Z,1092.00
2018-09-14T16:15:36.457Z,980.00
2018-09-14T16:18:01.410Z,896.00
2018-09-14T16:19:01.357Z,832.00
2018-09-14T16:28:41.782Z,432.00
2018-09-14T16:29:39.381Z,400.00
2018-09-14T16:32:32.898Z,296.00
2018-09-14T16:35:24.044Z,236.00
2018-09-14T16:36:22.083Z,224.00
2018-09-14T16:42:05.680Z,216.00
2018-09-14T16:43:05.847Z,204.00
2018-09-14T16:45:00.383Z,188.00
2018-09-14T16:46:01.943Z,180.00
2018-09-14T16:51:12.459Z,136.00
2018-09-14T16:51:25.440Z,120.00
2018-09-14T16:56:28.615Z,84.00
2018-09-14T16:57:20.770Z,76.00
2018-09-14T16:59:14.827Z,64.00
2018-09-14T17:00:17.450Z,56.00
2018-09-14T17:02:22.289Z,40.00
2018-09-14T17:03:20.477Z,36.00
2018-09-14T17:04:21.003Z,32.00
2018-09-14T17:05:20.299Z,28.00
2018-09-14T17:06:21.039Z,24.00
2018-09-14T17:07:20.430Z,24.00
2018-09-14T17:08:20.241Z,20.00
2018-09-14T17:09:21.196Z,20.00
2018-09-14T17:10:20.323Z,20.00
2018-09-14T17:11:22.275Z,16.00
2018-09-14T17:12:23.767Z,12.00
2018-09-14T17:13:20.392Z,16.00
2018-09-14T17:14:20.402Z,8.00
2018-09-14T17:15:22.277Z,8.00
2018-09-14T17:16:20.189Z,8.00
2018-09-14T17:17:22.044Z,8.00
2018-09-14T17:18:21.081Z,4.00
2018-09-14T17:25:55.072Z,4.00
2018-09-14T17:26:09.931Z,4.00
2018-09-14T17:29:18.699Z,0.00
2018-09-14T17:30:14.070Z,0.00
2018-09-14T17:31:28.797Z,0.00
2018-09-14T17:42:01.082Z,0.00
2018-09-14T17:43:36.763Z,0.00
2018-09-14T17:48:00.796Z,0.00
2018-09-14T17:48:57.215Z,0.00
2018-09-14T17:51:27.474Z,0.00
2018-09-14T17:52:29.306Z,0.00
2018-09-14T17:54:28.833Z,0.00
2018-09-14T17:55:21.160Z,0.00
2018-09-14T17:57:14.198Z,0.00
2018-09-14T17:58:14.259Z,0.00
2018-09-14T18:01:38.702Z,0.00
2018-09-14T18:04:54.056Z,0.00
2018-09-14T18:05:54.790Z,0.00
2018-09-14T18:06:54.103Z,0.00
2018-09-14T18:08:53.978Z,0.00
2018-09-14T18:09:54.130Z,0.00
2018-09-14T18:12:15.022Z,0.00
2018-09-14T18:12:54.593Z,0.00
2018-09-14T18:14:53.924Z,0.00
2018-09-14T18:15:54.762Z,0.00
2018-09-14T18:16:58.586Z,0.00
2018-09-14T18:18:08.620Z,0.00
2018-09-14T18:20:48.244Z,0.00
2018-09-14T18:21:34.117Z,0.00
2018-09-14T18:24:15.992Z,0.00
2018-09-14T18:26:04.416Z,0.00
2018-09-14T18:27:59.610Z,0.00
2018-09-14T18:28:59.527Z,0.00
2018-09-14T18:29:57.595Z,0.00
2018-09-14T18:31:00.594Z,0.00
2018-09-14T18:31:57.729Z,0.00
2018-09-14T18:32:57.532Z,0.00
2018-09-14T18:33:57.570Z,0.00
2018-09-14T18:35:12.467Z,0.00
2018-09-14T18:35:58.661Z,0.00
2018-09-14T18:36:59.518Z,0.00
2018-09-14T18:38:00.024Z,0.00